createdAt,value
2017-12-10T00:00:40.825Z,0
2017-12-10T00:01:50.827Z,0
2017-12-10T00:03:00.554Z,0
2017-12-10T00:04:10.338Z,0
2017-12-10T00:05:19.554Z,0
2017-12-10T00:06:29.544Z,0
2017-12-10T00:07:39.806Z,0
2017-12-10T00:08:49.554Z,0
2017-12-10T00:09:58.749Z,4
2017-12-10T00:11:08.743Z,0
2017-12-10T00:12:18.735Z,4
2017-12-10T00:13:28.731Z,4
2017-12-10T00:14:38.587Z,4
2017-12-10T00:15:48.359Z,4
2017-12-10T00:16:58.438Z,4
2017-12-10T00:18:08.166Z,4
2017-12-10T00:19:17.908Z,4
2017-12-10T00:20:27.676Z,4
2017-12-10T00:21:37.162Z,4
2017-12-10T00:22:46.646Z,4
2017-12-10T00:23:56.360Z,4
2017-12-10T00:25:06.358Z,4
2017-12-10T00:26:16.083Z,4
2017-12-10T00:27:26.086Z,4
2017-12-10T00:28:35.806Z,4
2017-12-10T00:29:46.048Z,4
2017-12-10T00:30:55.800Z,4
2017-12-10T00:32:05.582Z,4
2017-12-10T00:33:15.309Z,4
2017-12-10T00:34:25.307Z,4
2017-12-10T00:35:35.027Z,4
2017-12-10T00:36:45.018Z,4
2017-12-10T00:37:54.518Z,4
2017-12-10T00:39:04.568Z,4
2017-12-10T00:40:14.347Z,4
2017-12-10T00:41:24.342Z,4
2017-12-10T00:42:34.333Z,4
2017-12-10T00:43:44.316Z,4
2017-12-10T00:44:54.177Z,4
2017-12-10T00:46:03.894Z,4
2017-12-10T00:47:13.617Z,4
2017-12-10T00:48:23.625Z,4
2017-12-10T00:49:33.083Z,4
2017-12-10T00:50:42.525Z,4
2017-12-10T00:51:52.247Z,4
2017-12-10T00:53:01.993Z,4
2017-12-10T00:54:11.738Z,4
2017-12-10T00:55:21.805Z,4
2017-12-10T00:56:31.793Z,4
2017-12-10T00:57:41.801Z,4
2017-12-10T00:58:51.795Z,4
2017-12-10T01:00:01.787Z,4
2017-12-10T01:01:11.513Z,4
2017-12-10T01:02:21.504Z,4
2017-12-10T01:03:31.489Z,4
2017-12-10T01:04:40.952Z,4
2017-12-10T01:05:50.677Z,4
2017-12-10T01:07:00.401Z,4
2017-12-10T01:08:10.192Z,4
2017-12-10T01:09:19.720Z,4
2017-12-10T01:10:29.744Z,4
2017-12-10T01:11:39.350Z,4
2017-12-10T01:12:49.070Z,4
2017-12-10T01:13:58.788Z,4
2017-12-10T01:15:08.773Z,4
2017-12-10T01:16:18.831Z,4
2017-12-10T01:17:28.552Z,4
2017-12-10T01:18:38.400Z,4
2017-12-10T01:19:48.506Z,0
2017-12-10T01:20:58.003Z,0
2017-12-10T01:22:07.469Z,0
2017-12-10T01:23:17.192Z,0
2017-12-10T01:24:27.281Z,0
2017-12-10T01:25:37.264Z,0
2017-12-10T01:26:46.993Z,4
2017-12-10T01:27:56.726Z,4
2017-12-10T01:29:06.726Z,4
2017-12-10T01:30:16.717Z,4
2017-12-10T01:31:26.434Z,4
2017-12-10T01:32:35.905Z,4
2017-12-10T01:33:45.631Z,4
2017-12-10T01:34:55.618Z,4
2017-12-10T01:36:05.608Z,4
2017-12-10T01:37:15.600Z,4
2017-12-10T01:38:25.363Z,4
2017-12-10T01:39:35.351Z,4
2017-12-10T01:40:45.072Z,4
2017-12-10T01:41:54.796Z,4
2017-12-10T01:43:04.809Z,4
2017-12-10T01:44:14.005Z,4
2017-12-10T01:45:23.461Z,4
2017-12-10T01:46:33.190Z,4
2017-12-10T01:47:43.191Z,4
2017-12-10T01:48:52.658Z,4
2017-12-10T01:50:02.378Z,4
2017-12-10T01:51:12.371Z,4
2017-12-10T01:52:22.103Z,4
2017-12-10T01:53:31.825Z,4
2017-12-10T01:54:41.547Z,4
2017-12-10T01:55:51.600Z,4
2017-12-10T01:57:01.325Z,4
2017-12-10T01:58:11.051Z,4
2017-12-10T01:59:21.050Z,4
2017-12-10T02:00:30.890Z,4
2017-12-10T02:01:40.874Z,4
2017-12-10T02:02:50.596Z,4
2017-12-10T02:04:00.052Z,4
2017-12-10T02:05:09.773Z,4
2017-12-10T02:06:19.772Z,4
2017-12-10T02:07:29.490Z,4
2017-12-10T02:08:39.494Z,4
2017-12-10T02:09:49.274Z,4
2017-12-10T02:10:58.996Z,4
2017-12-10T02:12:08.988Z,4
2017-12-10T02:13:18.450Z,4
2017-12-10T02:14:28.175Z,4
2017-12-10T02:15:37.899Z,4
2017-12-10T02:16:47.624Z,4
2017-12-10T02:17:57.636Z,4
2017-12-10T02:19:07.368Z,4
2017-12-10T02:20:17.398Z,0
2017-12-10T02:21:26.854Z,0
2017-12-10T02:22:36.586Z,4
2017-12-10T02:23:46.306Z,4
2017-12-10T02:24:56.286Z,4
2017-12-10T02:26:05.745Z,4
2017-12-10T02:27:15.202Z,4
2017-12-10T02:28:24.668Z,4
2017-12-10T02:29:34.634Z,4
2017-12-10T02:30:44.619Z,4
2017-12-10T02:31:54.609Z,4
2017-12-10T02:33:04.341Z,4
2017-12-10T02:34:14.098Z,4
2017-12-10T02:35:23.829Z,4
2017-12-10T02:36:33.551Z,4
2017-12-10T02:37:42.480Z,4
2017-12-10T02:38:52.475Z,4
2017-12-10T02:40:02.471Z,4
2017-12-10T02:41:12.191Z,4
2017-12-10T02:42:21.919Z,4
2017-12-10T02:43:31.956Z,4
2017-12-10T02:44:41.426Z,4
2017-12-10T02:45:50.888Z,4
2017-12-10T02:47:00.887Z,4
2017-12-10T02:48:10.613Z,4
2017-12-10T02:49:20.068Z,4
2017-12-10T02:50:29.794Z,4
2017-12-10T02:51:39.793Z,4
2017-12-10T02:52:49.950Z,4
2017-12-10T02:53:59.143Z,4
2017-12-10T02:55:09.137Z,4
2017-12-10T02:56:19.190Z,4
2017-12-10T02:57:29.291Z,4
2017-12-10T02:58:39.283Z,4
2017-12-10T02:59:48.763Z,4
2017-12-10T03:00:58.496Z,4
2017-12-10T03:02:08.225Z,4
2017-12-10T03:03:17.695Z,4
2017-12-10T03:04:27.680Z,4
2017-12-10T03:05:37.146Z,4
2017-12-10T03:06:46.590Z,4
2017-12-10T03:07:56.323Z,4
2017-12-10T03:09:06.314Z,4
2017-12-10T03:10:15.783Z,4
2017-12-10T03:11:25.780Z,4
2017-12-10T03:12:35.792Z,4
2017-12-10T03:13:45.789Z,4
2017-12-10T03:14:55.925Z,4
2017-12-10T03:16:05.915Z,4
2017-12-10T03:17:15.911Z,4
2017-12-10T03:18:25.903Z,4
2017-12-10T03:19:35.354Z,4
2017-12-10T03:20:45.082Z,4
2017-12-10T03:21:55.105Z,4
2017-12-10T03:23:04.596Z,4
2017-12-10T03:24:14.593Z,4
2017-12-10T03:25:24.332Z,4
2017-12-10T03:26:33.798Z,4
2017-12-10T03:27:43.868Z,4
2017-12-10T03:28:53.886Z,4
2017-12-10T03:30:03.634Z,4
2017-12-10T03:31:13.428Z,4
2017-12-10T03:32:23.463Z,4
2017-12-10T03:33:33.471Z,4
2017-12-10T03:34:42.928Z,4
2017-12-10T03:35:53.057Z,4
2017-12-10T03:37:03.066Z,4
2017-12-10T03:38:12.794Z,4
2017-12-10T03:39:22.520Z,0
2017-12-10T03:40:32.261Z,4
2017-12-10T03:41:42.254Z,4
2017-12-10T03:42:51.987Z,4
2017-12-10T03:44:01.717Z,4
2017-12-10T03:45:11.694Z,4
2017-12-10T03:46:21.702Z,4
2017-12-10T03:47:31.214Z,0
2017-12-10T03:48:41.203Z,4
2017-12-10T03:49:50.663Z,4
2017-12-10T03:51:00.121Z,0
2017-12-10T03:52:09.323Z,4
2017-12-10T03:53:19.056Z,4
2017-12-10T03:54:28.785Z,4
2017-12-10T03:55:38.806Z,4
2017-12-10T03:56:49.056Z,4
2017-12-10T03:57:59.080Z,4
2017-12-10T03:59:08.824Z,4
2017-12-10T04:00:18.825Z,4
2017-12-10T04:01:28.279Z,4
2017-12-10T04:02:38.546Z,4
2017-12-10T04:03:48.273Z,4
2017-12-10T04:04:58.512Z,0
2017-12-10T04:06:08.023Z,0
2017-12-10T04:07:18.069Z,0
2017-12-10T04:08:27.844Z,0
2017-12-10T04:09:37.593Z,0
2017-12-10T04:10:47.339Z,0
2017-12-10T04:11:57.057Z,0
2017-12-10T04:13:07.052Z,0
2017-12-10T04:14:17.035Z,4
2017-12-10T04:15:26.775Z,0
2017-12-10T04:16:36.248Z,0
2017-12-10T04:17:46.245Z,0
2017-12-10T04:18:55.963Z,0
2017-12-10T04:20:06.052Z,4
2017-12-10T04:21:15.786Z,4
2017-12-10T04:22:25.784Z,4
2017-12-10T04:23:35.522Z,4
2017-12-10T04:24:45.516Z,4
2017-12-10T04:25:55.647Z,4
2017-12-10T04:27:05.377Z,4
2017-12-10T04:28:14.828Z,4
2017-12-10T04:29:24.816Z,4
2017-12-10T04:30:34.809Z,4
2017-12-10T04:31:44.259Z,4
2017-12-10T04:32:54.246Z,4
2017-12-10T04:34:03.984Z,4
2017-12-10T04:35:13.985Z,4
2017-12-10T04:36:23.198Z,4
2017-12-10T04:37:33.200Z,4
2017-12-10T04:38:43.252Z,4
2017-12-10T04:39:52.446Z,0
2017-12-10T04:41:01.649Z,4
2017-12-10T04:42:11.661Z,4
2017-12-10T04:43:21.653Z,4
2017-12-10T04:44:31.663Z,4
2017-12-10T04:45:41.125Z,0
2017-12-10T04:46:51.361Z,0
2017-12-10T04:48:01.089Z,4
2017-12-10T04:49:10.836Z,4
2017-12-10T04:50:20.846Z,4
2017-12-10T04:51:30.847Z,0
2017-12-10T04:52:40.557Z,4
2017-12-10T04:53:50.019Z,4
2017-12-10T04:54:59.468Z,4
2017-12-10T04:56:09.200Z,4
2017-12-10T04:57:18.666Z,4
2017-12-10T04:58:28.403Z,4
2017-12-10T04:59:37.610Z,4
2017-12-10T05:00:47.600Z,4
2017-12-10T05:01:57.595Z,4
2017-12-10T05:03:07.598Z,4
2017-12-10T05:04:17.344Z,4
2017-12-10T05:05:27.343Z,4
2017-12-10T05:06:36.798Z,4
2017-12-10T05:07:47.064Z,4
2017-12-10T05:08:56.516Z,4
2017-12-10T05:10:06.517Z,4
2017-12-10T05:11:16.066Z,4
2017-12-10T05:12:26.077Z,4
2017-12-10T05:13:35.812Z,4
2017-12-10T05:14:45.550Z,4
2017-12-10T05:15:55.533Z,4
2017-12-10T05:17:05.531Z,4
2017-12-10T05:18:15.269Z,4
2017-12-10T05:19:24.983Z,4
2017-12-10T05:20:34.712Z,4
2017-12-10T05:21:44.705Z,4
2017-12-10T05:22:54.176Z,4
2017-12-10T05:24:03.918Z,4
2017-12-10T05:25:13.906Z,4
2017-12-10T05:26:23.904Z,4
2017-12-10T05:27:33.643Z,4
2017-12-10T05:28:43.580Z,4
2017-12-10T05:29:53.575Z,4
2017-12-10T05:31:03.028Z,4
2017-12-10T05:32:13.036Z,4
2017-12-10T05:33:22.766Z,4
2017-12-10T05:34:32.764Z,4
2017-12-10T05:35:42.809Z,4
2017-12-10T05:36:52.270Z,0
2017-12-10T05:38:01.991Z,0
2017-12-10T05:39:11.442Z,0
2017-12-10T05:40:21.437Z,0
2017-12-10T05:41:31.418Z,0
2017-12-10T05:42:41.417Z,0
2017-12-10T05:43:51.428Z,0
2017-12-10T05:45:00.880Z,0
2017-12-10T05:46:10.866Z,0
2017-12-10T05:47:20.887Z,0
2017-12-10T05:48:30.879Z,0
2017-12-10T05:49:40.654Z,0
2017-12-10T05:50:50.114Z,0
2017-12-10T05:51:59.845Z,0
2017-12-10T05:53:09.326Z,0
2017-12-10T05:54:19.314Z,0
2017-12-10T05:55:28.778Z,0
2017-12-10T05:56:38.769Z,0
2017-12-10T05:57:48.238Z,0
2017-12-10T05:58:57.707Z,0
2017-12-10T06:00:07.426Z,0
2017-12-10T06:01:16.896Z,0
2017-12-10T06:02:26.372Z,0
2017-12-10T06:03:36.104Z,0
2017-12-10T06:04:46.099Z,0
2017-12-10T06:05:56.079Z,0
2017-12-10T06:07:06.066Z,0
2017-12-10T06:08:16.052Z,0
2017-12-10T06:09:26.049Z,0
2017-12-10T06:10:35.515Z,0
2017-12-10T06:11:45.255Z,0
2017-12-10T06:12:54.710Z,0
2017-12-10T06:14:04.437Z,0
2017-12-10T06:15:14.424Z,0
2017-12-10T06:16:24.158Z,0
2017-12-10T06:17:33.616Z,0
2017-12-10T06:18:42.810Z,0
2017-12-10T06:19:52.795Z,0
2017-12-10T06:21:02.787Z,0
2017-12-10T06:22:12.770Z,0
2017-12-10T06:23:22.764Z,0
2017-12-10T06:24:32.236Z,0
2017-12-10T06:25:42.239Z,0
2017-12-10T06:26:52.247Z,0
2017-12-10T06:28:01.713Z,0
2017-12-10T06:29:11.703Z,0
2017-12-10T06:30:21.428Z,0
2017-12-10T06:31:31.176Z,0
2017-12-10T06:32:40.927Z,0
2017-12-10T06:33:50.699Z,0
2017-12-10T06:35:00.696Z,0
2017-12-10T06:36:10.696Z,0
2017-12-10T06:37:20.434Z,0
2017-12-10T06:38:30.163Z,0
2017-12-10T06:39:39.885Z,4
2017-12-10T06:40:49.615Z,4
2017-12-10T06:41:59.347Z,4
2017-12-10T06:43:08.834Z,4
2017-12-10T06:44:18.824Z,4
2017-12-10T06:45:28.824Z,4
2017-12-10T06:46:38.815Z,4
2017-12-10T06:47:48.819Z,4
2017-12-10T06:48:58.831Z,4
2017-12-10T06:50:08.823Z,4
2017-12-10T06:51:18.925Z,4
2017-12-10T06:52:28.927Z,0
2017-12-10T06:53:38.647Z,4
2017-12-10T06:54:48.622Z,4
2017-12-10T06:55:58.628Z,4
2017-12-10T06:57:08.369Z,4
2017-12-10T06:58:17.833Z,4
2017-12-10T06:59:27.824Z,4
2017-12-10T07:00:37.817Z,4
2017-12-10T07:01:47.833Z,8
2017-12-10T07:02:57.587Z,8
2017-12-10T07:04:07.316Z,8
2017-12-10T07:05:17.312Z,12
2017-12-10T07:06:27.044Z,16
2017-12-10T07:07:37.051Z,16
2017-12-10T07:08:46.791Z,16
2017-12-10T07:09:56.791Z,20
2017-12-10T07:11:06.791Z,24
2017-12-10T07:12:16.515Z,24
2017-12-10T07:13:26.517Z,32
2017-12-10T07:14:36.605Z,36
2017-12-10T07:15:46.649Z,36
2017-12-10T07:16:56.640Z,44
2017-12-10T07:18:06.740Z,48
2017-12-10T07:19:16.550Z,52
2017-12-10T07:20:26.397Z,56
2017-12-10T07:21:36.126Z,56
2017-12-10T07:22:46.125Z,64
2017-12-10T07:23:56.122Z,72
2017-12-10T07:25:06.234Z,76
2017-12-10T07:26:16.315Z,80
2017-12-10T07:27:25.776Z,88
2017-12-10T07:28:35.235Z,96
2017-12-10T07:29:44.740Z,104
2017-12-10T07:30:54.460Z,112
2017-12-10T07:32:03.921Z,124
2017-12-10T07:33:13.959Z,132
2017-12-10T07:34:23.696Z,144
2017-12-10T07:35:33.429Z,156
2017-12-10T07:36:42.880Z,168
2017-12-10T07:37:52.615Z,180
2017-12-10T07:39:02.345Z,188
2017-12-10T07:40:11.849Z,200
2017-12-10T07:41:21.317Z,212
2017-12-10T07:42:31.324Z,216
2017-12-10T07:43:41.048Z,224
2017-12-10T07:44:50.791Z,236
2017-12-10T07:46:00.796Z,240
2017-12-10T07:47:10.788Z,248
2017-12-10T07:48:20.769Z,260
2017-12-10T07:49:30.826Z,276
2017-12-10T07:50:40.561Z,296
2017-12-10T07:51:50.548Z,328
2017-12-10T07:53:00.651Z,356
2017-12-10T07:54:10.696Z,384
2017-12-10T07:55:20.695Z,404
2017-12-10T07:56:30.675Z,428
2017-12-10T07:57:40.468Z,444
2017-12-10T07:58:49.926Z,460
2017-12-10T07:59:59.660Z,472
2017-12-10T08:01:09.400Z,480
2017-12-10T08:02:18.608Z,484
2017-12-10T08:03:28.630Z,496
2017-12-10T08:04:38.381Z,508
2017-12-10T08:05:47.855Z,532
2017-12-10T08:06:57.581Z,560
2017-12-10T08:08:07.570Z,596
2017-12-10T08:09:17.610Z,612
2017-12-10T08:10:27.341Z,620
2017-12-10T08:11:36.960Z,620
2017-12-10T08:12:47.041Z,616
2017-12-10T08:13:57.060Z,608
2017-12-10T08:15:07.072Z,596
2017-12-10T08:16:17.150Z,592
2017-12-10T08:17:27.162Z,616
2017-12-10T08:18:36.897Z,676
2017-12-10T08:19:46.633Z,748
2017-12-10T08:20:56.402Z,812
2017-12-10T08:22:05.885Z,860
2017-12-10T08:23:15.635Z,892
2017-12-10T08:24:25.631Z,896
2017-12-10T08:25:35.379Z,876
2017-12-10T08:26:45.421Z,860
2017-12-10T08:27:55.162Z,852
2017-12-10T08:29:04.912Z,864
2017-12-10T08:30:14.924Z,868
2017-12-10T08:31:24.934Z,864
2017-12-10T08:32:34.769Z,864
2017-12-10T08:33:44.845Z,856
2017-12-10T08:34:54.359Z,844
2017-12-10T08:36:04.098Z,844
2017-12-10T08:37:13.833Z,852
2017-12-10T08:38:23.571Z,880
2017-12-10T08:39:33.297Z,904
2017-12-10T08:40:43.037Z,928
2017-12-10T08:41:52.763Z,940
2017-12-10T08:43:02.496Z,932
2017-12-10T08:44:12.514Z,912
2017-12-10T08:45:22.513Z,900
2017-12-10T08:46:32.520Z,920
2017-12-10T08:47:42.264Z,964
2017-12-10T08:48:52.056Z,996
2017-12-10T08:50:02.039Z,1012
2017-12-10T08:51:12.042Z,1008
2017-12-10T08:52:21.792Z,980
2017-12-10T08:53:31.788Z,944
2017-12-10T08:54:41.515Z,928
2017-12-10T08:55:51.526Z,936
2017-12-10T08:57:01.506Z,952
2017-12-10T08:58:11.250Z,956
2017-12-10T08:59:21.248Z,964
2017-12-10T09:00:31.286Z,988
2017-12-10T09:01:40.792Z,1028
2017-12-10T09:02:50.782Z,1072
2017-12-10T09:04:00.518Z,1108
2017-12-10T09:05:10.521Z,1132
2017-12-10T09:06:20.525Z,1148
2017-12-10T09:07:30.516Z,1152
2017-12-10T09:08:39.708Z,1144
2017-12-10T09:09:49.455Z,1140
2017-12-10T09:10:59.453Z,1140
2017-12-10T09:12:09.458Z,1132
2017-12-10T09:13:19.428Z,1128
2017-12-10T09:14:29.447Z,1116
2017-12-10T09:15:39.453Z,1104
2017-12-10T09:16:49.173Z,1088
2017-12-10T09:17:58.914Z,1072
2017-12-10T09:19:08.862Z,1048
2017-12-10T09:20:18.608Z,1044
2017-12-10T09:21:28.338Z,1064
2017-12-10T09:22:37.857Z,1088
2017-12-10T09:23:47.854Z,1104
2017-12-10T09:24:57.869Z,1100
2017-12-10T09:26:07.747Z,1096
2017-12-10T09:27:17.744Z,1092
2017-12-10T09:28:27.471Z,1096
2017-12-10T09:29:37.205Z,1112
2017-12-10T09:30:47.206Z,1136
2017-12-10T09:31:57.226Z,1144
2017-12-10T09:33:06.694Z,1132
2017-12-10T09:34:16.442Z,1128
2017-12-10T09:35:26.446Z,1120
2017-12-10T09:36:35.648Z,1116
2017-12-10T09:37:45.696Z,1108
2017-12-10T09:38:55.166Z,1112
2017-12-10T09:40:05.352Z,1112
2017-12-10T09:41:15.112Z,1112
2017-12-10T09:42:25.119Z,1112
2017-12-10T09:43:34.855Z,1096
2017-12-10T09:44:44.606Z,1080
2017-12-10T09:45:54.759Z,1064
2017-12-10T09:47:04.758Z,1048
2017-12-10T09:48:14.446Z,1036
2017-12-10T09:49:24.591Z,1040
2017-12-10T09:50:34.606Z,1052
2017-12-10T09:51:44.420Z,1072
2017-12-10T09:52:54.531Z,1084
2017-12-10T09:54:04.311Z,1088
2017-12-10T09:55:14.035Z,1084
2017-12-10T09:56:23.755Z,1068
2017-12-10T09:57:33.664Z,1044
2017-12-10T09:58:43.696Z,1004
2017-12-10T09:59:53.738Z,972
2017-12-10T10:01:03.867Z,948
2017-12-10T10:02:13.409Z,924
2017-12-10T10:03:23.405Z,908
2017-12-10T10:04:33.207Z,908
2017-12-10T10:05:43.206Z,916
2017-12-10T10:06:52.957Z,928
2017-12-10T10:08:02.954Z,948
2017-12-10T10:09:12.942Z,960
2017-12-10T10:10:22.964Z,972
2017-12-10T10:11:32.598Z,980
2017-12-10T10:12:42.109Z,984
2017-12-10T10:13:51.661Z,980
2017-12-10T10:15:01.677Z,972
2017-12-10T10:16:11.771Z,956
2017-12-10T10:17:21.664Z,936
2017-12-10T10:18:31.392Z,916
2017-12-10T10:19:41.259Z,896
2017-12-10T10:20:50.733Z,880
2017-12-10T10:22:00.467Z,868
2017-12-10T10:23:10.193Z,868
2017-12-10T10:24:20.229Z,860
2017-12-10T10:25:29.782Z,848
2017-12-10T10:26:39.526Z,832
2017-12-10T10:27:49.518Z,820
2017-12-10T10:28:59.550Z,800
2017-12-10T10:30:09.130Z,772
2017-12-10T10:31:19.149Z,752
2017-12-10T10:32:28.769Z,724
2017-12-10T10:33:38.891Z,708
2017-12-10T10:34:48.634Z,676
2017-12-10T10:35:58.643Z,648
2017-12-10T10:37:08.535Z,636
2017-12-10T10:38:18.264Z,632
2017-12-10T10:39:28.002Z,636
2017-12-10T10:40:37.533Z,644
2017-12-10T10:41:46.993Z,656
2017-12-10T10:42:56.200Z,656
2017-12-10T10:44:05.806Z,668
2017-12-10T10:45:15.551Z,672
2017-12-10T10:46:25.550Z,676
2017-12-10T10:47:35.555Z,672
2017-12-10T10:48:45.044Z,672
2017-12-10T10:49:54.524Z,680
2017-12-10T10:51:04.321Z,692
2017-12-10T10:52:14.317Z,704
2017-12-10T10:53:24.057Z,712
2017-12-10T10:54:33.520Z,732
2017-12-10T10:55:43.512Z,760
2017-12-10T10:56:53.499Z,788
2017-12-10T10:58:02.977Z,800
2017-12-10T10:59:12.723Z,808
2017-12-10T11:00:22.752Z,824
2017-12-10T11:01:32.546Z,824
2017-12-10T11:02:42.292Z,848
2017-12-10T11:03:52.085Z,852
2017-12-10T11:05:01.810Z,844
2017-12-10T11:06:11.864Z,848
2017-12-10T11:07:21.852Z,828
2017-12-10T11:08:31.824Z,820
2017-12-10T11:09:41.569Z,812
2017-12-10T11:10:51.307Z,796
2017-12-10T11:12:01.036Z,780
2017-12-10T11:13:10.489Z,756
2017-12-10T11:14:20.223Z,728
2017-12-10T11:15:29.942Z,688
2017-12-10T11:16:40.066Z,680
2017-12-10T11:17:49.783Z,672
2017-12-10T11:18:59.837Z,660
2017-12-10T11:20:09.364Z,608
2017-12-10T11:21:19.434Z,552
2017-12-10T11:22:29.191Z,500
2017-12-10T11:23:38.925Z,496
2017-12-10T11:24:48.744Z,496
2017-12-10T11:25:58.215Z,492
2017-12-10T11:27:07.681Z,508
2017-12-10T11:28:17.473Z,528
2017-12-10T11:29:26.934Z,556
2017-12-10T11:30:36.728Z,556
2017-12-10T11:31:46.252Z,552
2017-12-10T11:32:56.272Z,584
2017-12-10T11:34:06.048Z,580
2017-12-10T11:35:14.993Z,588
2017-12-10T11:36:25.008Z,584
2017-12-10T11:37:34.482Z,560
2017-12-10T11:38:43.938Z,540
2017-12-10T11:39:54.022Z,548
2017-12-10T11:41:03.809Z,576
2017-12-10T11:42:13.129Z,628
2017-12-10T11:43:22.877Z,676
2017-12-10T11:44:32.109Z,700
2017-12-10T11:45:42.144Z,704
2017-12-10T11:46:52.240Z,692
2017-12-10T11:48:02.036Z,644
2017-12-10T11:49:11.780Z,620
2017-12-10T11:50:22.207Z,612
2017-12-10T11:51:31.984Z,608
2017-12-10T11:52:42.015Z,624
2017-12-10T11:53:51.509Z,604
2017-12-10T11:55:01.003Z,576
2017-12-10T11:56:10.800Z,604
2017-12-10T11:57:20.615Z,600
2017-12-10T11:58:30.370Z,600
2017-12-10T11:59:40.360Z,600
2017-12-10T12:00:49.843Z,584
2017-12-10T12:01:59.559Z,564
2017-12-10T12:03:09.647Z,552
2017-12-10T12:04:19.397Z,560
2017-12-10T12:05:29.394Z,548
2017-12-10T12:06:39.136Z,576
2017-12-10T12:07:48.889Z,568
2017-12-10T12:08:58.406Z,572
2017-12-10T12:10:07.912Z,592
2017-12-10T12:11:17.440Z,628
2017-12-10T12:12:27.465Z,644
2017-12-10T12:13:37.193Z,672
2017-12-10T12:14:46.658Z,724
2017-12-10T12:15:56.660Z,756
2017-12-10T12:17:06.391Z,752
2017-12-10T12:18:16.463Z,716
2017-12-10T12:19:26.463Z,668
2017-12-10T12:20:36.535Z,696
2017-12-10T12:21:46.257Z,752
2017-12-10T12:22:55.982Z,788
2017-12-10T12:24:05.735Z,796
2017-12-10T12:25:15.207Z,800
2017-12-10T12:26:24.948Z,844
2017-12-10T12:27:34.933Z,832
2017-12-10T12:28:44.968Z,792
2017-12-10T12:29:54.471Z,768
2017-12-10T12:31:04.207Z,736
2017-12-10T12:32:13.926Z,772
2017-12-10T12:33:23.686Z,752
2017-12-10T12:34:33.712Z,796
2017-12-10T12:35:43.437Z,784
2017-12-10T12:36:52.913Z,824
2017-12-10T12:38:02.952Z,864
2017-12-10T12:39:12.738Z,948
2017-12-10T12:40:22.745Z,1036
2017-12-10T12:41:32.221Z,1160
2017-12-10T12:42:41.428Z,1236
2017-12-10T12:43:51.432Z,1384
2017-12-10T12:45:01.158Z,1440
2017-12-10T12:46:10.632Z,1360
2017-12-10T12:47:20.665Z,1192
2017-12-10T12:48:30.405Z,1016
2017-12-10T12:49:40.435Z,1016
2017-12-10T12:50:49.904Z,1012
2017-12-10T12:51:59.957Z,1060
2017-12-10T12:53:09.154Z,988
2017-12-10T12:54:18.886Z,996
2017-12-10T12:55:28.768Z,872
2017-12-10T12:56:38.800Z,912
2017-12-10T12:57:48.554Z,872
2017-12-10T12:58:58.550Z,936
2017-12-10T13:00:08.017Z,896
2017-12-10T13:01:17.486Z,904
2017-12-10T13:02:27.505Z,852
2017-12-10T13:03:37.296Z,752
2017-12-10T13:04:46.798Z,664
2017-12-10T13:05:56.803Z,572
2017-12-10T13:07:06.332Z,508
2017-12-10T13:08:15.789Z,464
2017-12-10T13:09:25.785Z,416
2017-12-10T13:10:35.293Z,380
2017-12-10T13:11:45.017Z,360
2017-12-10T13:12:55.038Z,428
2017-12-10T13:14:04.876Z,432
2017-12-10T13:15:14.527Z,476
2017-12-10T13:16:24.685Z,496
2017-12-10T13:17:34.697Z,508
2017-12-10T13:18:44.597Z,528
2017-12-10T13:19:54.521Z,564
2017-12-10T13:21:04.208Z,604
2017-12-10T13:22:13.840Z,636
2017-12-10T13:23:23.522Z,644
2017-12-10T13:24:33.099Z,588
2017-12-10T13:25:43.019Z,564
2017-12-10T13:26:53.193Z,612
2017-12-10T13:28:03.143Z,672
2017-12-10T13:29:12.650Z,760
2017-12-10T13:30:22.308Z,868
2017-12-10T13:31:32.209Z,1092
2017-12-10T13:32:42.160Z,1296
2017-12-10T13:33:51.826Z,1500
2017-12-10T13:35:01.351Z,1584
2017-12-10T13:36:11.307Z,1536
2017-12-10T13:37:21.948Z,1792
2017-12-10T13:38:31.812Z,2764
2017-12-10T13:39:41.082Z,4192
2017-12-10T13:40:51.079Z,4956
2017-12-10T13:42:01.141Z,4588
2017-12-10T13:43:11.158Z,3980
2017-12-10T13:44:20.912Z,3592
2017-12-10T13:45:30.643Z,3408
2017-12-10T13:46:40.698Z,3136
2017-12-10T13:47:50.224Z,2972
2017-12-10T13:48:59.682Z,3016
2017-12-10T13:50:09.511Z,2672
2017-12-10T13:51:19.188Z,2348
2017-12-10T13:52:29.413Z,2288
2017-12-10T13:53:39.429Z,2076
2017-12-10T13:54:49.184Z,1660
2017-12-10T13:55:58.664Z,1392
2017-12-10T13:57:08.663Z,1220
2017-12-10T13:58:22.506Z,1048
2017-12-10T13:59:31.981Z,916
2017-12-10T14:00:41.714Z,768
2017-12-10T14:01:51.173Z,640
2017-12-10T14:03:01.178Z,572
2017-12-10T14:04:10.916Z,548
2017-12-10T14:05:20.912Z,544
2017-12-10T14:06:30.911Z,652
2017-12-10T14:07:40.981Z,928
2017-12-10T14:08:51.028Z,1220
2017-12-10T14:10:01.070Z,1172
2017-12-10T14:11:10.340Z,1088
2017-12-10T14:12:20.635Z,1060
2017-12-10T14:13:30.764Z,1080
2017-12-10T14:14:40.490Z,1012
2017-12-10T14:15:50.281Z,920
2017-12-10T14:17:00.490Z,888
2017-12-10T14:18:10.401Z,808
2017-12-10T14:19:20.473Z,772
2017-12-10T14:20:30.589Z,696
2017-12-10T14:21:41.934Z,612
2017-12-10T14:22:52.295Z,544
2017-12-10T14:24:02.332Z,528
2017-12-10T14:25:12.421Z,516
2017-12-10T14:26:22.193Z,512
2017-12-10T14:27:32.291Z,492
2017-12-10T14:28:42.096Z,488
2017-12-10T14:29:52.290Z,496
2017-12-10T14:31:02.024Z,488
2017-12-10T14:32:11.765Z,516
2017-12-10T14:33:21.778Z,520
2017-12-10T14:34:31.791Z,544
2017-12-10T14:35:41.710Z,544
2017-12-10T14:36:51.433Z,528
2017-12-10T14:38:00.894Z,520
2017-12-10T14:39:10.641Z,592
2017-12-10T14:40:20.382Z,728
2017-12-10T14:41:30.664Z,920
2017-12-10T14:42:40.533Z,968
2017-12-10T14:43:50.586Z,1088
2017-12-10T14:45:00.569Z,1040
2017-12-10T14:46:10.582Z,924
2017-12-10T14:47:20.584Z,848
2017-12-10T14:48:30.308Z,976
2017-12-10T14:49:40.034Z,904
2017-12-10T14:50:50.136Z,768
2017-12-10T14:52:00.284Z,696
2017-12-10T14:53:09.999Z,624
2017-12-10T14:54:20.047Z,536
2017-12-10T14:55:30.049Z,460
2017-12-10T14:56:40.082Z,388
2017-12-10T14:57:49.916Z,340
2017-12-10T14:58:59.923Z,324
2017-12-10T15:00:09.392Z,276
2017-12-10T15:01:19.549Z,248
2017-12-10T15:02:29.596Z,224
2017-12-10T15:03:39.388Z,208
2017-12-10T15:04:49.120Z,192
2017-12-10T15:05:58.868Z,164
2017-12-10T15:07:08.357Z,160
2017-12-10T15:08:18.095Z,164
2017-12-10T15:09:27.837Z,144
2017-12-10T15:10:37.855Z,128
2017-12-10T15:11:47.593Z,108
2017-12-10T15:12:57.340Z,96
2017-12-10T15:14:06.818Z,92
2017-12-10T15:15:16.823Z,92
2017-12-10T15:16:25.786Z,92
2017-12-10T15:17:35.790Z,80
2017-12-10T15:18:45.785Z,68
2017-12-10T15:19:55.609Z,68
2017-12-10T15:21:05.486Z,64
2017-12-10T15:22:15.448Z,56
2017-12-10T15:23:25.219Z,52
2017-12-10T15:24:35.046Z,48
2017-12-10T15:25:44.875Z,44
2017-12-10T15:26:54.744Z,44
2017-12-10T15:28:04.790Z,40
2017-12-10T15:29:14.293Z,36
2017-12-10T15:30:23.650Z,32
2017-12-10T15:31:33.487Z,28
2017-12-10T15:32:43.013Z,24
2017-12-10T15:33:52.543Z,24
2017-12-10T15:35:02.058Z,24
2017-12-10T15:36:11.825Z,20
2017-12-10T15:37:21.928Z,20
2017-12-10T15:38:31.783Z,16
2017-12-10T15:39:41.354Z,12
2017-12-10T15:40:50.867Z,12
2017-12-10T15:42:00.679Z,12
2017-12-10T15:43:10.504Z,8
2017-12-10T15:44:20.259Z,8
2017-12-10T15:45:30.313Z,8
2017-12-10T15:46:40.054Z,4
2017-12-10T15:47:49.934Z,8
2017-12-10T15:48:59.694Z,4
2017-12-10T15:50:09.725Z,4
2017-12-10T15:51:19.218Z,4
2017-12-10T15:52:28.983Z,8
2017-12-10T15:53:39.082Z,8
2017-12-10T15:54:49.171Z,8
2017-12-10T15:55:59.472Z,4
2017-12-10T15:57:09.227Z,4
2017-12-10T15:58:19.147Z,4
2017-12-10T15:59:28.754Z,4
2017-12-10T16:00:38.758Z,4
2017-12-10T16:01:48.924Z,4
2017-12-10T16:02:59.046Z,4
2017-12-10T16:04:09.171Z,4
2017-12-10T16:05:19.227Z,4
2017-12-10T16:06:29.274Z,4
2017-12-10T16:07:38.355Z,4
2017-12-10T16:08:48.216Z,4
2017-12-10T16:09:57.773Z,4
2017-12-10T16:11:07.926Z,4
2017-12-10T16:12:17.428Z,4
2017-12-10T16:13:27.683Z,4
2017-12-10T16:14:37.780Z,4
2017-12-10T16:15:47.558Z,4
2017-12-10T16:16:57.685Z,4
2017-12-10T16:18:07.789Z,4
2017-12-10T16:19:17.826Z,4
2017-12-10T16:20:27.640Z,4
2017-12-10T16:21:37.528Z,4
2017-12-10T16:22:47.302Z,4
2017-12-10T16:23:56.780Z,4
2017-12-10T16:25:06.824Z,4
2017-12-10T16:26:16.681Z,4
2017-12-10T16:27:26.217Z,4
2017-12-10T16:28:36.260Z,4
2017-12-10T16:29:45.538Z,4
2017-12-10T16:30:55.569Z,4
2017-12-10T16:32:05.626Z,4